createdAt,value
2022-08-05T00:00:54.599Z,23.54
2022-08-05T00:02:07.635Z,23.53
2022-08-05T00:03:15.487Z,23.51
2022-08-05T00:04:18.787Z,23.50
2022-08-05T00:06:01.458Z,23.48
2022-08-05T00:06:45.439Z,23.48
2022-08-05T00:08:00.336Z,23.46
2022-08-05T00:09:04.468Z,23.45
2022-08-05T00:10:15.911Z,23.44
2022-08-05T00:11:23.898Z,23.42
2022-08-05T00:12:33.609Z,23.41
2022-08-05T00:13:53.127Z,23.41
2022-08-05T00:14:56.179Z,23.40
2022-08-05T00:16:00.320Z,23.39
2022-08-05T00:17:04.446Z,23.38
2022-08-05T00:18:22.607Z,23.38
2022-08-05T00:19:33.776Z,23.37
2022-08-05T00:20:49.041Z,23.37
2022-08-05T00:21:52.078Z,23.36
2022-08-05T00:22:59.696Z,23.36
2022-08-05T00:24:10.590Z,23.36
2022-08-05T00:25:14.375Z,23.35
2022-08-05T00:26:20.011Z,23.35
2022-08-05T00:27:23.010Z,23.34
2022-08-05T00:28:39.165Z,23.34
2022-08-05T00:29:42.972Z,23.34
2022-08-05T00:30:46.379Z,23.33
2022-08-05T00:32:13.039Z,23.33
2022-08-05T00:34:54.018Z,23.33
2022-08-05T00:35:04.686Z,23.32
2022-08-05T00:36:15.209Z,23.31
2022-08-05T00:37:50.449Z,23.29
2022-08-05T00:38:51.811Z,23.28
2022-08-05T00:39:58.812Z,23.26
2022-08-05T00:41:02.117Z,23.24
2022-08-05T00:42:05.157Z,23.23
2022-08-05T00:43:08.019Z,23.21
2022-08-05T00:44:10.927Z,23.20
2022-08-05T00:45:14.335Z,23.18
2022-08-05T00:46:17.230Z,23.16
2022-08-05T00:47:56.367Z,23.13
2022-08-05T00:49:00.493Z,23.10
2022-08-05T00:50:03.605Z,23.08
2022-08-05T00:51:51.139Z,23.05
2022-08-05T00:52:31.944Z,23.01
2022-08-05T00:54:00.206Z,22.99
2022-08-05T00:55:05.008Z,22.95
2022-08-05T00:56:08.451Z,22.93
2022-08-05T00:57:12.003Z,22.89
2022-08-05T00:58:17.012Z,22.87
2022-08-05T00:59:22.395Z,22.83
2022-08-05T01:00:26.100Z,22.80
2022-08-05T01:01:42.533Z,22.78
2022-08-05T01:02:51.292Z,22.73
2022-08-05T01:03:55.950Z,22.70
2022-08-05T01:04:59.220Z,22.67
2022-08-05T01:06:02.590Z,22.64
2022-08-05T01:07:06.863Z,22.61
2022-08-05T01:08:42.581Z,22.58
2022-08-05T01:09:39.402Z,22.54
2022-08-05T01:10:58.099Z,22.51
2022-08-05T01:12:18.242Z,22.48
2022-08-05T01:13:27.168Z,22.44
2022-08-05T01:14:35.251Z,22.40
2022-08-05T01:15:47.864Z,22.37
2022-08-05T01:16:54.743Z,22.33
2022-08-05T01:18:01.788Z,22.30
2022-08-05T01:19:20.236Z,22.27
2022-08-05T01:20:41.412Z,22.23
2022-08-05T01:22:02.946Z,22.27
2022-08-05T01:23:14.365Z,22.41
2022-08-05T01:24:45.876Z,22.55
2022-08-05T01:25:53.803Z,22.66
2022-08-05T01:27:17.533Z,22.74
2022-08-05T01:28:22.518Z,22.83
2022-08-05T01:29:29.484Z,22.88
2022-08-05T01:32:00.795Z,22.96
2022-08-05T01:33:08.281Z,23.00
2022-08-05T01:34:21.618Z,23.02
2022-08-05T01:35:51.318Z,23.06
2022-08-05T01:37:00.458Z,23.08
2022-08-05T01:38:04.368Z,23.10
2022-08-05T01:39:07.531Z,23.11
2022-08-05T01:40:12.690Z,23.13
2022-08-05T01:41:17.525Z,23.14
2022-08-05T01:42:25.796Z,23.14
2022-08-05T01:43:30.737Z,23.15
2022-08-05T01:44:36.434Z,23.15
2022-08-05T01:45:43.071Z,23.16
2022-08-05T01:46:46.910Z,23.15
2022-08-05T01:47:54.480Z,23.14
2022-08-05T01:49:01.016Z,23.13
2022-08-05T01:50:29.641Z,23.13
2022-08-05T01:51:35.477Z,23.12
2022-08-05T01:52:42.466Z,23.12
2022-08-05T01:53:57.663Z,23.12
2022-08-05T01:55:04.480Z,23.10
2022-08-05T01:56:09.532Z,23.09
2022-08-05T01:58:10.638Z,23.09
2022-08-05T01:58:44.685Z,23.07
2022-08-05T01:59:54.980Z,23.07
2022-08-05T02:00:59.601Z,23.07
2022-08-05T02:02:03.024Z,23.07
2022-08-05T02:03:31.531Z,23.05
2022-08-05T02:04:37.173Z,23.05
2022-08-05T02:05:45.181Z,23.06
2022-08-05T02:06:51.240Z,23.05
2022-08-05T02:07:59.797Z,23.05
2022-08-05T02:09:05.672Z,23.04
2022-08-05T02:10:10.426Z,23.04
2022-08-05T02:11:23.855Z,23.04
2022-08-05T02:12:42.607Z,23.03
2022-08-05T02:13:53.466Z,23.02
2022-08-05T02:15:19.892Z,23.01
2022-08-05T02:16:23.037Z,23.01
2022-08-05T02:18:27.885Z,22.98
2022-08-05T02:18:59.019Z,22.90
2022-08-05T02:20:03.455Z,22.77
2022-08-05T02:21:14.717Z,22.64
2022-08-05T02:22:25.796Z,22.51
2022-08-05T02:23:33.617Z,22.36
2022-08-05T02:24:38.149Z,22.26
2022-08-05T02:25:49.699Z,22.16
2022-08-05T02:26:56.219Z,22.07
2022-08-05T02:28:00.584Z,21.97
2022-08-05T02:29:04.739Z,21.90
2022-08-05T02:30:09.093Z,21.83
2022-08-05T02:31:16.646Z,21.77
2022-08-05T02:32:30.938Z,21.78
2022-08-05T02:33:38.850Z,21.86
2022-08-05T02:34:43.798Z,21.96
2022-08-05T02:36:01.341Z,22.08
2022-08-05T02:37:08.180Z,22.16
2022-08-05T02:38:13.332Z,22.24
2022-08-05T02:39:23.171Z,22.31
2022-08-05T02:40:27.551Z,22.37
2022-08-05T02:41:43.361Z,22.42
2022-08-05T02:42:55.728Z,22.46
2022-08-05T02:44:02.243Z,22.51
2022-08-05T02:45:10.259Z,22.55
2022-08-05T02:46:16.482Z,22.56
2022-08-05T02:47:21.040Z,22.59
2022-08-05T02:48:29.070Z,22.61
2022-08-05T02:49:40.368Z,22.64
2022-08-05T02:50:47.366Z,22.66
2022-08-05T02:52:03.025Z,22.68
2022-08-05T02:53:11.791Z,22.69
2022-08-05T02:54:34.856Z,22.71
2022-08-05T02:55:54.942Z,22.72
2022-08-05T02:57:03.094Z,22.74
2022-08-05T02:58:11.015Z,22.77
2022-08-05T02:59:17.339Z,22.78
2022-08-05T03:00:21.612Z,22.79
2022-08-05T03:01:25.614Z,22.79
2022-08-05T03:02:33.993Z,22.79
2022-08-05T03:04:04.391Z,22.81
2022-08-05T03:05:04.167Z,22.81
2022-08-05T03:06:55.754Z,22.82
2022-08-05T03:08:01.604Z,22.82
2022-08-05T03:08:55.026Z,22.83
2022-08-05T03:09:59.478Z,22.84
2022-08-05T03:11:57.149Z,22.83
2022-08-05T03:12:31.160Z,22.84
2022-08-05T03:13:51.731Z,22.84
2022-08-05T03:14:57.355Z,22.83
2022-08-05T03:16:00.250Z,22.83
2022-08-05T03:17:07.366Z,22.83
2022-08-05T03:18:12.326Z,22.83
2022-08-05T03:19:33.015Z,22.83
2022-08-05T03:20:38.274Z,22.84
2022-08-05T03:21:49.624Z,22.84
2022-08-05T03:22:57.276Z,22.84
2022-08-05T03:24:01.063Z,22.84
2022-08-05T03:26:03.418Z,22.84
2022-08-05T03:26:32.281Z,22.84
2022-08-05T03:27:57.971Z,22.83
2022-08-05T03:28:59.125Z,22.82
2022-08-05T03:30:07.746Z,22.82
2022-08-05T03:31:55.360Z,22.82
2022-08-05T03:32:35.994Z,22.81
2022-08-05T03:33:52.693Z,22.81
2022-08-05T03:34:56.271Z,22.82
2022-08-05T03:35:59.733Z,22.81
2022-08-05T03:37:03.675Z,22.81
2022-08-05T03:38:06.850Z,22.82
2022-08-05T03:39:13.026Z,22.82
2022-08-05T03:40:31.137Z,22.83
2022-08-05T03:41:45.164Z,22.83
2022-08-05T03:42:52.441Z,22.84
2022-08-05T03:44:08.335Z,22.85
2022-08-05T03:45:21.586Z,22.87
2022-08-05T03:46:26.797Z,22.88
2022-08-05T03:47:35.390Z,22.90
2022-08-05T03:48:45.362Z,22.90
2022-08-05T03:49:51.449Z,22.91
2022-08-05T03:52:35.374Z,22.93
2022-08-05T03:54:59.099Z,22.96
2022-08-05T03:55:54.083Z,22.96
2022-08-05T03:56:04.332Z,22.98
2022-08-05T03:57:16.695Z,23.01
2022-08-05T03:58:22.960Z,23.03
2022-08-05T03:59:47.080Z,23.05
2022-08-05T04:01:00.089Z,23.08
2022-08-05T04:02:04.096Z,23.08
2022-08-05T04:03:26.621Z,23.10
2022-08-05T04:04:32.830Z,23.09
2022-08-05T04:05:36.330Z,23.00
2022-08-05T04:06:47.648Z,22.89
2022-08-05T04:07:58.295Z,22.77
2022-08-05T04:09:02.597Z,22.67
2022-08-05T04:10:07.365Z,22.58
2022-08-05T04:11:11.193Z,22.51
2022-08-05T04:12:24.759Z,22.43
2022-08-05T04:13:49.837Z,22.36
2022-08-05T04:14:51.634Z,22.30
2022-08-05T04:16:04.434Z,22.27
2022-08-05T04:17:08.876Z,22.23
2022-08-05T04:18:20.573Z,22.20
2022-08-05T04:19:25.732Z,22.18
2022-08-05T04:20:28.661Z,22.18
2022-08-05T04:22:09.509Z,22.17
2022-08-05T04:22:54.977Z,22.16
2022-08-05T04:24:05.998Z,22.16
2022-08-05T04:25:11.962Z,22.15
2022-08-05T04:26:18.195Z,22.15
2022-08-05T04:27:41.662Z,22.15
2022-08-05T04:28:51.671Z,22.16
2022-08-05T04:29:55.199Z,22.16
2022-08-05T04:30:58.218Z,22.17
2022-08-05T04:32:03.939Z,22.18
2022-08-05T04:33:06.931Z,22.19
2022-08-05T04:34:18.330Z,22.20
2022-08-05T04:36:10.945Z,22.21
2022-08-05T04:36:57.388Z,22.23
2022-08-05T04:38:02.603Z,22.24
2022-08-05T04:39:09.626Z,22.26
2022-08-05T04:40:14.421Z,22.28
2022-08-05T04:41:22.800Z,22.30
2022-08-05T04:42:40.049Z,22.32
2022-08-05T04:43:48.042Z,22.33
2022-08-05T04:44:55.142Z,22.35
2022-08-05T04:45:58.041Z,22.37
2022-08-05T04:47:09.933Z,22.39
2022-08-05T04:48:18.525Z,22.42
2022-08-05T04:49:38.446Z,22.45
2022-08-05T04:51:03.750Z,22.50
2022-08-05T04:52:15.093Z,22.53
2022-08-05T04:53:18.675Z,22.55
2022-08-05T04:54:22.357Z,22.59
2022-08-05T04:56:15.086Z,22.61
2022-08-05T04:56:50.103Z,22.65
2022-08-05T04:57:56.635Z,22.68
2022-08-05T04:58:59.691Z,22.72
2022-08-05T05:00:23.314Z,22.76
2022-08-05T05:02:08.117Z,22.80
2022-08-05T05:02:50.575Z,22.85
2022-08-05T05:03:53.668Z,22.87
2022-08-05T05:05:01.623Z,22.91
2022-08-05T05:06:40.591Z,22.94
2022-08-05T05:07:29.722Z,22.98
2022-08-05T05:08:36.577Z,23.01
2022-08-05T05:09:46.014Z,23.04
2022-08-05T05:10:56.156Z,23.08
2022-08-05T05:12:02.928Z,23.12
2022-08-05T05:13:06.163Z,23.17
2022-08-05T05:14:10.551Z,23.21
2022-08-05T05:15:56.371Z,23.24
2022-08-05T05:16:42.349Z,23.29
2022-08-05T05:17:56.444Z,23.33
2022-08-05T05:19:18.776Z,23.38
2022-08-05T05:20:22.637Z,23.44
2022-08-05T05:21:33.118Z,23.49
2022-08-05T05:22:36.206Z,23.56
2022-08-05T05:24:04.075Z,23.64
2022-08-05T05:25:16.600Z,23.79
2022-08-05T05:26:28.122Z,23.93
2022-08-05T05:27:45.911Z,24.11
2022-08-05T05:28:51.771Z,24.29
2022-08-05T05:30:04.971Z,24.42
2022-08-05T05:31:08.935Z,24.52
2022-08-05T05:32:12.555Z,24.59
2022-08-05T05:33:23.317Z,24.64
2022-08-05T05:34:27.321Z,24.67
2022-08-05T05:35:38.133Z,24.69
2022-08-05T05:36:42.732Z,24.70
2022-08-05T05:37:59.558Z,24.72
2022-08-05T05:39:04.401Z,24.74
2022-08-05T05:40:07.844Z,24.76
2022-08-05T05:41:10.894Z,24.79
2022-08-05T05:42:15.150Z,24.81
2022-08-05T05:43:27.630Z,24.85
2022-08-05T05:44:44.405Z,24.89
2022-08-05T05:45:49.265Z,24.93
2022-08-05T05:46:52.177Z,24.96
2022-08-05T05:48:07.088Z,24.98
2022-08-05T05:49:22.965Z,25.01
2022-08-05T05:50:26.451Z,25.03
2022-08-05T05:51:29.424Z,25.05
2022-08-05T05:52:52.927Z,25.07
2022-08-05T05:53:59.491Z,25.09
2022-08-05T05:55:07.532Z,25.10
2022-08-05T05:56:16.824Z,25.12
2022-08-05T05:57:51.885Z,25.16
2022-08-05T05:58:55.483Z,25.25
2022-08-05T05:59:58.746Z,25.33
2022-08-05T06:01:12.798Z,25.42
2022-08-05T06:02:32.727Z,25.50
2022-08-05T06:04:00.833Z,25.55
2022-08-05T06:05:10.453Z,25.57
2022-08-05T06:06:19.919Z,25.58
2022-08-05T06:07:41.353Z,25.59
2022-08-05T06:08:49.228Z,25.62
2022-08-05T06:10:01.515Z,25.64
2022-08-05T06:11:08.838Z,25.66
2022-08-05T06:12:16.572Z,25.69
2022-08-05T06:13:22.552Z,25.70
2022-08-05T06:14:27.891Z,25.70
2022-08-05T06:16:30.644Z,25.70
2022-08-05T06:16:54.665Z,25.71
2022-08-05T06:18:00.083Z,25.70
2022-08-05T06:19:05.924Z,25.70
2022-08-05T06:20:21.432Z,25.70
2022-08-05T06:21:24.782Z,25.71
2022-08-05T06:22:40.535Z,25.73
2022-08-05T06:23:45.537Z,25.76
2022-08-05T06:24:52.751Z,25.84
2022-08-05T06:26:13.360Z,25.91
2022-08-05T06:28:10.932Z,26.03
2022-08-05T06:28:42.154Z,26.11
2022-08-05T06:29:51.926Z,26.15
2022-08-05T06:31:11.312Z,26.19
2022-08-05T06:32:28.635Z,26.23
2022-08-05T06:33:52.258Z,26.27
2022-08-05T06:34:57.207Z,26.31
2022-08-05T06:36:07.556Z,26.33
2022-08-05T06:37:13.342Z,26.33
2022-08-05T06:38:17.726Z,26.34
2022-08-05T06:39:39.552Z,26.37
2022-08-05T06:40:44.878Z,26.39
2022-08-05T06:41:49.424Z,26.42
2022-08-05T06:42:52.895Z,26.44
2022-08-05T06:44:00.271Z,26.47
2022-08-05T06:45:05.494Z,26.51
2022-08-05T06:46:11.922Z,26.54
2022-08-05T06:47:30.110Z,26.56
2022-08-05T06:48:52.816Z,26.60
2022-08-05T06:50:05.181Z,26.64
2022-08-05T06:51:09.606Z,26.68
2022-08-05T06:52:37.982Z,26.71
2022-08-05T06:53:39.422Z,26.74
2022-08-05T06:54:42.458Z,26.76
2022-08-05T06:55:46.030Z,26.77
2022-08-05T06:56:55.118Z,26.78
2022-08-05T06:58:29.580Z,26.80
2022-08-05T06:59:38.801Z,26.82
2022-08-05T07:00:45.513Z,26.85
2022-08-05T07:01:50.452Z,26.88
2022-08-05T07:02:56.108Z,26.89
2022-08-05T07:03:59.445Z,26.90
2022-08-05T07:05:02.468Z,26.91
2022-08-05T07:06:14.135Z,26.94
2022-08-05T07:07:24.158Z,26.98
2022-08-05T07:08:47.660Z,27.02
2022-08-05T07:09:55.524Z,27.06
2022-08-05T07:11:01.929Z,27.11
2022-08-05T07:12:05.092Z,27.14
2022-08-05T07:13:54.283Z,27.18
2022-08-05T07:15:09.473Z,27.25
2022-08-05T07:17:56.977Z,27.31
2022-08-05T07:18:01.904Z,27.37
2022-08-05T07:19:11.177Z,27.42
2022-08-05T07:20:37.037Z,27.46
2022-08-05T07:22:00.230Z,27.50
2022-08-05T07:23:04.540Z,27.53
2022-08-05T07:24:11.198Z,27.54
2022-08-05T07:25:54.190Z,27.56
2022-08-05T07:26:37.547Z,27.58
2022-08-05T07:27:57.543Z,27.59
2022-08-05T07:29:03.758Z,27.61
2022-08-05T07:30:27.212Z,27.65
2022-08-05T07:31:40.952Z,27.69
2022-08-05T07:32:53.557Z,27.73
2022-08-05T07:33:56.542Z,27.77
2022-08-05T07:36:01.554Z,27.80
2022-08-05T07:36:30.305Z,27.85
2022-08-05T07:37:36.179Z,27.88
2022-08-05T07:38:44.195Z,27.91
2022-08-05T07:40:26.887Z,27.93
2022-08-05T07:42:07.409Z,27.97
2022-08-05T07:42:36.391Z,28.00
2022-08-05T07:43:39.417Z,28.02
2022-08-05T07:44:46.223Z,28.05
2022-08-05T07:45:57.555Z,28.07
2022-08-05T07:47:01.463Z,28.09
2022-08-05T07:48:11.288Z,28.13
2022-08-05T07:49:16.317Z,28.16
2022-08-05T07:50:28.872Z,28.21
2022-08-05T07:51:40.942Z,28.24
2022-08-05T07:52:57.250Z,28.28
2022-08-05T07:54:01.766Z,28.31
2022-08-05T07:55:16.011Z,28.35
2022-08-05T07:56:59.842Z,28.40
2022-08-05T07:58:02.430Z,28.45
2022-08-05T07:59:08.590Z,28.47
2022-08-05T08:00:14.410Z,28.49
2022-08-05T08:01:17.987Z,28.50
2022-08-05T08:02:26.700Z,28.51
2022-08-05T08:03:44.290Z,28.53
2022-08-05T08:04:49.198Z,28.57
2022-08-05T08:05:52.650Z,28.61
2022-08-05T08:06:56.150Z,28.66
2022-08-05T08:08:00.720Z,28.70
2022-08-05T08:09:03.930Z,28.73
2022-08-05T08:10:08.823Z,28.78
2022-08-05T08:11:15.865Z,28.81
2022-08-05T08:12:35.083Z,28.85
2022-08-05T08:13:49.298Z,28.91
2022-08-05T08:15:04.345Z,28.95
2022-08-05T08:16:35.000Z,28.98
2022-08-05T08:17:31.017Z,29.02
2022-08-05T08:18:34.007Z,29.06
2022-08-05T08:20:10.719Z,29.11
2022-08-05T08:21:03.564Z,29.17
2022-08-05T08:22:09.018Z,29.23
2022-08-05T08:24:02.727Z,29.28
2022-08-05T08:24:51.848Z,29.35
2022-08-05T08:26:00.349Z,29.43
2022-08-05T08:27:07.031Z,29.49
2022-08-05T08:28:18.368Z,29.55
2022-08-05T08:30:04.059Z,29.61
2022-08-05T08:30:47.817Z,29.70
2022-08-05T08:31:53.278Z,29.75
2022-08-05T08:32:56.242Z,29.80
2022-08-05T08:34:00.209Z,29.86
2022-08-05T08:35:03.321Z,29.90
2022-08-05T08:37:31.012Z,29.99
2022-08-05T08:38:39.535Z,30.03
2022-08-05T08:39:49.501Z,30.06
2022-08-05T08:40:53.094Z,30.10
2022-08-05T08:42:02.259Z,30.14
2022-08-05T08:44:54.757Z,30.20
2022-08-05T08:45:16.625Z,30.26
2022-08-05T08:45:56.731Z,30.31
2022-08-05T08:47:01.409Z,30.34
2022-08-05T08:48:12.475Z,30.36
2022-08-05T08:50:22.656Z,30.36
2022-08-05T08:51:22.134Z,30.35
2022-08-05T08:52:19.795Z,30.34
2022-08-05T08:53:24.852Z,30.33
2022-08-05T08:54:30.802Z,30.34
2022-08-05T08:56:03.919Z,30.32
2022-08-05T08:56:59.317Z,30.31
2022-08-05T08:58:02.713Z,30.29
2022-08-05T08:59:14.648Z,30.28
2022-08-05T09:00:22.827Z,30.26
2022-08-05T09:01:26.214Z,30.24
2022-08-05T09:02:29.517Z,30.21
2022-08-05T09:03:39.455Z,30.19
2022-08-05T09:05:16.346Z,30.17
2022-08-05T09:06:13.066Z,30.16
2022-08-05T09:07:29.195Z,30.18
2022-08-05T09:08:42.563Z,30.21
2022-08-05T09:09:47.506Z,30.24
2022-08-05T09:10:53.298Z,30.26
2022-08-05T09:12:01.270Z,30.29
2022-08-05T09:13:15.450Z,30.33
2022-08-05T09:14:56.855Z,30.38
2022-08-05T09:15:41.853Z,30.44
2022-08-05T09:16:48.857Z,30.48
2022-08-05T09:17:53.063Z,30.54
2022-08-05T09:18:56.163Z,30.59
2022-08-05T09:20:05.471Z,30.63
2022-08-05T09:21:11.619Z,30.68
2022-08-05T09:22:31.923Z,30.73
2022-08-05T09:23:43.622Z,30.77
2022-08-05T09:25:13.653Z,30.80
2022-08-05T09:26:32.326Z,30.83
2022-08-05T09:28:05.019Z,30.85
2022-08-05T09:29:04.592Z,30.89
2022-08-05T09:30:07.973Z,30.93
2022-08-05T09:31:43.534Z,30.96
2022-08-05T09:32:46.502Z,31.00
2022-08-05T09:33:55.090Z,31.04
2022-08-05T09:35:02.588Z,31.07
2022-08-05T09:36:11.791Z,31.10
2022-08-05T09:38:18.484Z,31.12
2022-08-05T09:38:59.748Z,31.14
2022-08-05T09:40:03.446Z,31.15
2022-08-05T09:41:08.728Z,31.17
2022-08-05T09:42:17.400Z,31.18
2022-08-05T09:43:28.179Z,31.18
2022-08-05T09:44:49.466Z,31.19
2022-08-05T09:46:06.525Z,31.21
2022-08-05T09:47:15.460Z,31.24
2022-08-05T09:48:29.486Z,31.28
2022-08-05T09:50:01.375Z,31.32
2022-08-05T09:50:58.137Z,31.38
2022-08-05T09:52:16.499Z,31.42
2022-08-05T09:53:25.803Z,31.49
2022-08-05T09:54:35.488Z,31.56
2022-08-05T09:55:58.138Z,31.61
2022-08-05T09:57:02.025Z,31.67
2022-08-05T09:58:12.457Z,31.70
2022-08-05T09:59:17.515Z,31.74
2022-08-05T10:00:24.649Z,31.76
2022-08-05T10:01:31.724Z,31.78
2022-08-05T10:02:36.742Z,31.80
2022-08-05T10:03:58.904Z,31.80
2022-08-05T10:05:08.010Z,31.81
2022-08-05T10:06:15.500Z,31.81
2022-08-05T10:07:20.847Z,31.81
2022-08-05T10:08:42.368Z,31.83
2022-08-05T10:10:13.939Z,31.86
2022-08-05T10:11:17.944Z,31.89
2022-08-05T10:12:33.676Z,31.91
2022-08-05T10:13:47.861Z,31.93
2022-08-05T10:14:54.323Z,31.94
2022-08-05T10:15:58.666Z,31.95
2022-08-05T10:17:36.819Z,31.95
2022-08-05T10:18:38.515Z,31.98
2022-08-05T10:20:04.223Z,32.00
2022-08-05T10:21:11.852Z,32.04
2022-08-05T10:22:29.706Z,32.07
2022-08-05T10:23:55.209Z,32.10
2022-08-05T10:24:56.402Z,32.13
2022-08-05T10:26:00.958Z,32.15
2022-08-05T10:27:04.202Z,32.17
2022-08-05T10:28:17.074Z,32.19
2022-08-05T10:29:24.030Z,32.21
2022-08-05T10:32:49.269Z,32.26
2022-08-05T10:32:54.223Z,32.32
2022-08-05T10:33:35.256Z,32.38
2022-08-05T10:34:40.698Z,32.43
2022-08-05T10:35:45.428Z,32.48
2022-08-05T10:36:50.631Z,32.54
2022-08-05T10:37:54.981Z,32.61
2022-08-05T10:39:05.270Z,32.69
2022-08-05T10:40:34.980Z,32.77
2022-08-05T10:42:08.156Z,32.85
2022-08-05T10:43:14.731Z,32.94
2022-08-05T10:44:19.068Z,33.02
2022-08-05T10:45:41.890Z,33.10
2022-08-05T10:46:46.886Z,33.19
2022-08-05T10:48:29.681Z,33.24
2022-08-05T10:49:17.679Z,33.31
2022-08-05T10:50:36.589Z,33.38
2022-08-05T10:51:48.675Z,33.47
2022-08-05T10:53:02.563Z,33.52
2022-08-05T10:54:31.096Z,33.54
2022-08-05T10:55:38.484Z,33.54
2022-08-05T10:56:58.499Z,33.51
2022-08-05T10:58:09.534Z,33.48
2022-08-05T11:00:04.398Z,33.49
2022-08-05T11:00:55.330Z,33.51
2022-08-05T11:02:06.978Z,33.50
2022-08-05T11:03:24.981Z,33.50
2022-08-05T11:04:30.752Z,33.51
2022-08-05T11:05:34.474Z,33.56
2022-08-05T11:06:58.436Z,33.59
2022-08-05T11:08:27.572Z,33.59
2022-08-05T11:09:45.770Z,33.59
2022-08-05T11:11:01.132Z,33.58
2022-08-05T11:12:26.630Z,33.55
2022-08-05T11:13:57.655Z,33.51
2022-08-05T11:15:20.502Z,33.50
2022-08-05T11:16:33.807Z,33.48
2022-08-05T11:17:59.228Z,33.48
2022-08-05T11:20:10.821Z,33.50
2022-08-05T11:20:46.166Z,33.59
2022-08-05T11:21:49.758Z,33.65
2022-08-05T11:22:54.842Z,33.71
2022-08-05T11:24:14.814Z,33.73
2022-08-05T11:26:05.322Z,33.82
2022-08-05T11:27:17.089Z,34.07
2022-08-05T11:28:20.014Z,34.40
2022-08-05T11:29:40.288Z,34.65
2022-08-05T11:31:12.335Z,34.90
2022-08-05T11:32:35.323Z,35.14
2022-08-05T11:33:46.062Z,35.22
2022-08-05T11:34:54.096Z,35.25
2022-08-05T11:36:08.779Z,35.26
2022-08-05T11:38:29.841Z,35.28
2022-08-05T11:38:57.866Z,35.29
2022-08-05T11:40:03.627Z,35.29
2022-08-05T11:41:56.235Z,35.28
2022-08-05T11:42:41.206Z,35.32
2022-08-05T11:44:05.933Z,35.35
2022-08-05T11:45:26.766Z,35.42
2022-08-05T11:47:09.422Z,35.50
2022-08-05T11:48:07.711Z,35.61
2022-08-05T11:49:15.602Z,35.75
2022-08-05T11:50:19.208Z,35.93
2022-08-05T11:51:44.078Z,36.10
2022-08-05T11:52:49.456Z,36.29
2022-08-05T11:53:53.816Z,36.41
2022-08-05T11:55:07.596Z,36.53
2022-08-05T11:56:13.879Z,36.63
2022-08-05T11:57:24.420Z,36.72
2022-08-05T11:58:30.279Z,36.83
2022-08-05T11:59:49.521Z,36.94
2022-08-05T12:01:00.855Z,37.09
2022-08-05T12:02:23.669Z,37.18
2022-08-05T12:03:31.541Z,37.23
2022-08-05T12:04:38.088Z,37.29
2022-08-05T12:05:46.129Z,37.36
2022-08-05T12:06:49.223Z,37.47
2022-08-05T12:08:10.444Z,37.60
2022-08-05T12:09:19.959Z,37.79
2022-08-05T12:10:42.840Z,37.98
2022-08-05T12:11:48.685Z,38.23
2022-08-05T12:12:59.942Z,38.40
2022-08-05T12:14:06.820Z,38.59
2022-08-05T12:15:19.156Z,38.72
2022-08-05T12:16:40.421Z,38.91
2022-08-05T12:18:03.832Z,39.08
2022-08-05T12:20:27.016Z,39.29
2022-08-05T12:20:38.783Z,39.42
2022-08-05T12:21:49.210Z,39.46
2022-08-05T12:22:52.441Z,39.48
2022-08-05T12:24:04.547Z,39.49
2022-08-05T12:25:09.076Z,39.52
2022-08-05T12:26:17.262Z,39.55
2022-08-05T12:27:25.541Z,39.59
2022-08-05T12:28:31.442Z,39.65
2022-08-05T12:29:37.976Z,39.69
2022-08-05T12:30:46.042Z,39.78
2022-08-05T12:31:53.023Z,39.90
2022-08-05T12:32:58.737Z,40.09
2022-08-05T12:34:20.256Z,40.35
2022-08-05T12:35:24.919Z,40.65
2022-08-05T12:36:43.892Z,40.90
2022-08-05T12:37:47.107Z,41.05
2022-08-05T12:38:51.341Z,41.15
2022-08-05T12:39:56.770Z,41.19
2022-08-05T12:41:12.282Z,41.26
2022-08-05T12:42:17.686Z,41.31
2022-08-05T12:43:21.282Z,41.38
2022-08-05T12:44:33.455Z,41.44
2022-08-05T12:45:48.286Z,41.51
2022-08-05T12:46:54.906Z,41.70
2022-08-05T12:48:01.752Z,41.89
2022-08-05T12:49:25.497Z,42.16
2022-08-05T12:50:30.831Z,42.38
2022-08-05T12:52:14.354Z,42.62
2022-08-05T12:53:15.674Z,42.99
2022-08-05T12:54:23.361Z,43.21
2022-08-05T12:55:33.000Z,43.48
2022-08-05T12:56:41.895Z,43.74
2022-08-05T12:58:49.831Z,43.98
2022-08-05T12:59:13.821Z,44.21
2022-08-05T13:02:00.554Z,44.47
2022-08-05T13:02:02.519Z,44.37
2022-08-05T13:03:08.073Z,44.52
2022-08-05T13:04:20.837Z,44.50
2022-08-05T13:05:24.970Z,44.53
2022-08-05T13:06:41.099Z,44.48
2022-08-05T13:07:59.981Z,44.45
2022-08-05T13:09:08.702Z,44.28
2022-08-05T13:10:19.869Z,43.99
2022-08-05T13:12:03.233Z,43.62
2022-08-05T13:12:57.730Z,43.28
2022-08-05T13:14:06.171Z,43.14
2022-08-05T13:15:18.064Z,43.20
2022-08-05T13:16:28.161Z,43.09
2022-08-05T13:17:41.754Z,43.06
2022-08-05T13:18:52.536Z,43.12
2022-08-05T13:20:00.969Z,43.23
2022-08-05T13:21:04.149Z,43.34
2022-08-05T13:22:07.513Z,43.42
2022-08-05T13:23:15.178Z,43.51
2022-08-05T13:24:27.809Z,43.61
2022-08-05T13:25:51.897Z,43.82
2022-08-05T13:27:02.815Z,44.00
2022-08-05T13:28:06.922Z,44.13
2022-08-05T13:29:19.121Z,44.25
2022-08-05T13:30:39.134Z,44.44
2022-08-05T13:32:04.971Z,44.61
2022-08-05T13:33:06.065Z,44.73
2022-08-05T13:34:24.241Z,44.82
2022-08-05T13:35:43.238Z,44.98
2022-08-05T13:36:52.176Z,45.17
2022-08-05T13:37:55.356Z,45.33
2022-08-05T13:38:59.005Z,45.44
2022-08-05T13:40:16.189Z,45.55
2022-08-05T13:41:25.713Z,45.63
2022-08-05T13:42:39.615Z,45.60
2022-08-05T13:43:54.743Z,45.48
2022-08-05T13:44:58.116Z,45.25
2022-08-05T13:46:02.457Z,45.03
2022-08-05T13:47:09.099Z,44.78
2022-08-05T13:48:57.792Z,44.56
2022-08-05T13:49:35.508Z,44.34
2022-08-05T13:50:38.576Z,44.18
2022-08-05T13:51:46.371Z,44.04
2022-08-05T13:52:50.117Z,43.86
2022-08-05T13:53:57.844Z,43.70
2022-08-05T13:55:01.339Z,43.57
2022-08-05T13:56:05.366Z,43.41
2022-08-05T13:57:22.529Z,43.19
2022-08-05T13:58:30.810Z,42.98
2022-08-05T13:59:34.457Z,42.73
2022-08-05T14:00:38.783Z,42.58
2022-08-05T14:01:56.318Z,42.51
2022-08-05T14:03:01.009Z,42.53
2022-08-05T14:04:26.611Z,42.59
2022-08-05T14:06:04.921Z,42.81
2022-08-05T14:06:58.892Z,42.93
2022-08-05T14:08:20.707Z,43.06
2022-08-05T14:09:24.659Z,43.19
2022-08-05T14:10:33.035Z,43.28
2022-08-05T14:12:03.920Z,43.31
2022-08-05T14:13:02.990Z,43.36
2022-08-05T14:14:06.277Z,43.39
2022-08-05T14:16:04.769Z,43.44
2022-08-05T14:16:32.590Z,43.53
2022-08-05T14:17:36.673Z,43.56
2022-08-05T14:18:39.604Z,43.59
2022-08-05T14:19:56.147Z,43.66
2022-08-05T14:21:00.227Z,43.79
2022-08-05T14:22:23.492Z,43.79
2022-08-05T14:23:36.679Z,43.85
2022-08-05T14:24:40.291Z,43.93
2022-08-05T14:25:44.968Z,44.03
2022-08-05T14:27:08.423Z,44.17
2022-08-05T14:28:26.263Z,44.33
2022-08-05T14:29:31.329Z,44.50
2022-08-05T14:30:34.511Z,44.69
2022-08-05T14:32:03.703Z,44.85
2022-08-05T14:33:02.066Z,44.86
2022-08-05T14:34:06.707Z,44.81
2022-08-05T14:35:15.001Z,44.74
2022-08-05T14:36:21.428Z,44.71
2022-08-05T14:37:42.161Z,44.73
2022-08-05T14:38:47.981Z,44.80
2022-08-05T14:39:56.916Z,44.91
2022-08-05T14:41:05.957Z,45.14
2022-08-05T14:42:20.927Z,45.38
2022-08-05T14:43:58.833Z,45.65
2022-08-05T14:44:48.362Z,45.99
2022-08-05T14:45:51.846Z,46.25
2022-08-05T14:46:56.531Z,46.44
2022-08-05T14:48:05.065Z,46.53
2022-08-05T14:49:09.430Z,46.51
2022-08-05T14:50:18.146Z,46.43
2022-08-05T14:51:22.120Z,46.34
2022-08-05T14:52:50.496Z,46.24
2022-08-05T14:54:26.564Z,46.09
2022-08-05T14:55:24.505Z,46.01
2022-08-05T14:56:27.759Z,46.13
2022-08-05T14:57:53.924Z,46.10
2022-08-05T14:58:55.103Z,45.99
2022-08-05T14:59:58.429Z,45.95
2022-08-05T15:01:02.142Z,45.94
2022-08-05T15:02:15.914Z,45.89
2022-08-05T15:03:19.299Z,45.80
2022-08-05T15:04:27.310Z,45.71
2022-08-05T15:06:07.341Z,45.58
2022-08-05T15:06:55.739Z,45.47
2022-08-05T15:08:12.206Z,45.43
2022-08-05T15:09:52.368Z,45.37
2022-08-05T15:10:46.258Z,45.29
2022-08-05T15:11:52.347Z,45.21
2022-08-05T15:13:03.630Z,45.07
2022-08-05T15:14:07.448Z,44.93
2022-08-05T15:15:15.302Z,44.80
2022-08-05T15:16:18.661Z,44.69
2022-08-05T15:17:46.869Z,44.60
2022-08-05T15:18:47.279Z,44.59
2022-08-05T15:19:50.313Z,44.69
2022-08-05T15:20:58.197Z,44.83
2022-08-05T15:22:11.072Z,44.97
2022-08-05T15:23:14.358Z,45.09
2022-08-05T15:24:17.639Z,45.21